sensor_id;sensor_type;location;lat;lon;timestamp;pressure;altitude;pressure_sealevel;temperature;humidity
45345;BME280;31078;48.304;11.896;2022-08-19T00:00:07;95756.25;;;17.48;100.00
45345;BME280;31078;48.304;11.896;2022-08-19T00:02:40;95755.00;;;17.42;100.00
45345;BME280;31078;48.304;11.896;2022-08-19T00:05:08;95766.69;;;17.32;100.00
45345;BME280;31078;48.304;11.896;2022-08-19T00:07:37;95763.38;;;17.50;100.00
45345;BME280;31078;48.304;11.896;2022-08-19T00:10:05;95766.25;;;17.64;100.00
45345;BME280;31078;48.304;11.896;2022-08-19T00:12:32;95774.28;;;17.76;100.00
45345;BME280;31078;48.304;11.896;2022-08-19T00:14:59;95778.66;;;17.81;100.00
45345;BME280;31078;48.304;11.896;2022-08-19T00:17:26;95771.94;;;17.78;100.00
45345;BME280;31078;48.304;11.896;2022-08-19T00:19:52;95762.47;;;17.76;100.00
45345;BME280;31078;48.304;11.896;2022-08-19T00:22:19;95760.19;;;17.85;100.00
45345;BME280;31078;48.304;11.896;2022-08-19T00:24:47;95759.53;;;17.98;99.35
45345;BME280;31078;48.304;11.896;2022-08-19T00:27:13;95746.03;;;17.83;100.00
45345;BME280;31078;48.304;11.896;2022-08-19T00:29:40;95736.56;;;17.80;100.00
45345;BME280;31078;48.304;11.896;2022-08-19T00:32:07;95723.25;;;17.86;99.22
45345;BME280;31078;48.304;11.896;2022-08-19T00:34:33;95724.03;;;17.86;99.86
45345;BME280;31078;48.304;11.896;2022-08-19T00:37:00;95715.00;;;17.89;98.73
45345;BME280;31078;48.304;11.896;2022-08-19T00:39:27;95718.63;;;18.00;99.00
45345;BME280;31078;48.304;11.896;2022-08-19T00:41:55;95721.75;;;17.99;98.89
45345;BME280;31078;48.304;11.896;2022-08-19T00:44:24;95721.41;;;18.04;98.15
45345;BME280;31078;48.304;11.896;2022-08-19T00:46:53;95720.16;;;17.94;98.48
45345;BME280;31078;48.304;11.896;2022-08-19T00:49:24;95719.41;;;17.97;98.37
45345;BME280;31078;48.304;11.896;2022-08-19T00:51:56;95717.03;;;17.96;98.53
45345;BME280;31078;48.304;11.896;2022-08-19T00:54:24;95715.09;;;18.04;98.36
45345;BME280;31078;48.304;11.896;2022-08-19T00:56:51;95709.25;;;18.09;98.71
45345;BME280;31078;48.304;11.896;2022-08-19T00:59:20;95711.09;;;17.94;98.81
45345;BME280;31078;48.304;11.896;2022-08-19T01:01:47;95702.16;;;18.08;98.67
45345;BME280;31078;48.304;11.896;2022-08-19T01:04:15;95707.66;;;18.08;98.32
45345;BME280;31078;48.304;11.896;2022-08-19T01:06:42;95705.75;;;18.12;97.89
45345;BME280;31078;48.304;11.896;2022-08-19T01:09:09;95716.28;;;18.03;98.65
45345;BME280;31078;48.304;11.896;2022-08-19T01:11:41;95724.94;;;18.05;98.84
45345;BME280;31078;48.304;11.896;2022-08-19T01:14:10;95735.09;;;17.93;99.55
45345;BME280;31078;48.304;11.896;2022-08-19T01:16:39;95728.94;;;18.11;98.67
45345;BME280;31078;48.304;11.896;2022-08-19T01:19:10;95732.88;;;18.10;98.37
45345;BME280;31078;48.304;11.896;2022-08-19T01:21:50;95731.69;;;18.11;98.26
45345;BME280;31078;48.304;11.896;2022-08-19T01:24:20;95729.41;;;18.20;97.86
45345;BME280;31078;48.304;11.896;2022-08-19T01:26:47;95729.88;;;18.29;97.08
45345;BME280;31078;48.304;11.896;2022-08-19T01:29:14;95724.41;;;18.36;96.75
45345;BME280;31078;48.304;11.896;2022-08-19T01:31:41;95729.19;;;18.43;95.82
45345;BME280;31078;48.304;11.896;2022-08-19T01:34:07;95715.47;;;18.54;95.43
45345;BME280;31078;48.304;11.896;2022-08-19T01:36:38;95724.13;;;18.56;94.54
45345;BME280;31078;48.304;11.896;2022-08-19T01:39:10;95723.00;;;18.64;94.31
45345;BME280;31078;48.304;11.896;2022-08-19T01:41:38;95730.94;;;18.69;94.18
45345;BME280;31078;48.304;11.896;2022-08-19T01:44:06;95750.59;;;18.64;93.66
45345;BME280;31078;48.304;11.896;2022-08-19T01:46:33;95748.56;;;18.54;94.51
45345;BME280;31078;48.304;11.896;2022-08-19T01:49:01;95740.34;;;18.64;93.96
45345;BME280;31078;48.304;11.896;2022-08-19T01:51:27;95752.88;;;18.58;94.31
45345;BME280;31078;48.304;11.896;2022-08-19T01:53:58;95762.00;;;18.66;94.06
45345;BME280;31078;48.304;11.896;2022-08-19T01:56:25;95768.63;;;18.54;94.66
45345;BME280;31078;48.304;11.896;2022-08-19T01:58:55;95770.22;;;18.55;94.56
45345;BME280;31078;48.304;11.896;2022-08-19T02:01:22;95774.16;;;18.58;94.61
45345;BME280;31078;48.304;11.896;2022-08-19T02:03:48;95773.00;;;18.59;94.26
45345;BME280;31078;48.304;11.896;2022-08-19T02:06:15;95776.56;;;18.63;94.32
45345;BME280;31078;48.304;11.896;2022-08-19T02:08:45;95765.47;;;18.52;94.11
45345;BME280;31078;48.304;11.896;2022-08-19T02:11:19;95760.78;;;18.60;94.46
45345;BME280;31078;48.304;11.896;2022-08-19T02:13:46;95748.19;;;18.62;93.92
45345;BME280;31078;48.304;11.896;2022-08-19T02:16:16;95756.56;;;18.73;93.55
45345;BME280;31078;48.304;11.896;2022-08-19T02:18:42;95758.56;;;18.76;93.54
45345;BME280;31078;48.304;11.896;2022-08-19T02:21:09;95767.13;;;18.67;93.58
45345;BME280;31078;48.304;11.896;2022-08-19T02:23:36;95765.47;;;18.48;94.63
45345;BME280;31078;48.304;11.896;2022-08-19T02:26:02;95767.66;;;18.32;96.50
45345;BME280;31078;48.304;11.896;2022-08-19T02:28:29;95756.59;;;18.25;97.23
45345;BME280;31078;48.304;11.896;2022-08-19T02:30:55;95766.78;;;18.17;97.24
45345;BME280;31078;48.304;11.896;2022-08-19T02:33:23;95763.53;;;18.05;98.75
45345;BME280;31078;48.304;11.896;2022-08-19T02:35:50;95775.75;;;18.07;99.08
45345;BME280;31078;48.304;11.896;2022-08-19T02:38:16;95769.81;;;18.02;99.41
45345;BME280;31078;48.304;11.896;2022-08-19T02:40:52;95781.19;;;17.96;99.15
45345;BME280;31078;48.304;11.896;2022-08-19T02:43:20;95778.47;;;18.04;99.00
45345;BME280;31078;48.304;11.896;2022-08-19T02:45:47;95769.03;;;18.05;99.35
45345;BME280;31078;48.304;11.896;2022-08-19T02:48:15;95761.25;;;18.14;98.34
45345;BME280;31078;48.304;11.896;2022-08-19T02:50:44;95749.50;;;18.24;97.73
45345;BME280;31078;48.304;11.896;2022-08-19T02:53:11;95743.53;;;18.15;97.47
45345;BME280;31078;48.304;11.896;2022-08-19T02:55:43;95746.00;;;18.31;97.12
45345;BME280;31078;48.304;11.896;2022-08-19T02:58:10;95738.53;;;18.28;96.35
45345;BME280;31078;48.304;11.896;2022-08-19T03:00:41;95734.66;;;18.39;95.90
45345;BME280;31078;48.304;11.896;2022-08-19T03:03:09;95723.69;;;18.46;95.74
45345;BME280;31078;48.304;11.896;2022-08-19T03:05:36;95725.72;;;18.57;95.42
45345;BME280;31078;48.304;11.896;2022-08-19T03:08:04;95741.78;;;18.47;94.68
45345;BME280;31078;48.304;11.896;2022-08-19T03:10:31;95745.72;;;18.46;95.49
45345;BME280;31078;48.304;11.896;2022-08-19T03:12:57;95737.88;;;18.48;95.07
45345;BME280;31078;48.304;11.896;2022-08-19T03:15:24;95732.75;;;18.50;94.97
45345;BME280;31078;48.304;11.896;2022-08-19T03:17:51;95740.28;;;18.54;94.73
45345;BME280;31078;48.304;11.896;2022-08-19T03:20:18;95731.69;;;18.66;94.39
45345;BME280;31078;48.304;11.896;2022-08-19T03:22:44;95739.56;;;18.64;94.27
45345;BME280;31078;48.304;11.896;2022-08-19T03:25:12;95736.00;;;18.67;93.80
45345;BME280;31078;48.304;11.896;2022-08-19T03:27:39;95738.38;;;18.65;93.48
45345;BME280;31078;48.304;11.896;2022-08-19T03:30:06;95740.38;;;18.68;93.98
45345;BME280;31078;48.304;11.896;2022-08-19T03:32:34;95744.69;;;18.65;93.62
45345;BME280;31078;48.304;11.896;2022-08-19T03:35:00;95754.91;;;18.65;93.62
45345;BME280;31078;48.304;11.896;2022-08-19T03:37:27;95753.00;;;18.72;93.45
45345;BME280;31078;48.304;11.896;2022-08-19T03:39:54;95758.53;;;18.69;93.08
45345;BME280;31078;48.304;11.896;2022-08-19T03:42:22;95761.69;;;18.71;92.99
45345;BME280;31078;48.304;11.896;2022-08-19T03:44:50;95774.31;;;18.75;92.82
45345;BME280;31078;48.304;11.896;2022-08-19T03:47:16;95774.94;;;18.58;93.62
45345;BME280;31078;48.304;11.896;2022-08-19T03:49:43;95770.34;;;18.69;93.41
45345;BME280;31078;48.304;11.896;2022-08-19T03:52:10;95775.81;;;18.66;93.78
45345;BME280;31078;48.304;11.896;2022-08-19T03:54:37;95771.00;;;18.56;93.78
45345;BME280;31078;48.304;11.896;2022-08-19T03:57:04;95768.66;;;18.58;93.31
45345;BME280;31078;48.304;11.896;2022-08-19T03:59:35;95775.69;;;18.48;93.95
45345;BME280;31078;48.304;11.896;2022-08-19T04:02:06;95769.06;;;18.60;93.85
45345;BME280;31078;48.304;11.896;2022-08-19T04:04:34;95772.22;;;18.62;93.55
45345;BME280;31078;48.304;11.896;2022-08-19T04:07:02;95766.72;;;18.62;93.33
45345;BME280;31078;48.304;11.896;2022-08-19T04:09:28;95773.03;;;18.66;93.36
45345;BME280;31078;48.304;11.896;2022-08-19T04:11:58;95770.66;;;18.61;93.01
45345;BME280;31078;48.304;11.896;2022-08-19T04:14:26;95766.41;;;18.70;93.00
45345;BME280;31078;48.304;11.896;2022-08-19T04:16:57;95750.69;;;18.74;92.61
45345;BME280;31078;48.304;11.896;2022-08-19T04:19:24;95745.94;;;18.78;92.83
45345;BME280;31078;48.304;11.896;2022-08-19T04:21:53;95757.41;;;18.84;92.24
45345;BME280;31078;48.304;11.896;2022-08-19T04:24:20;95746.78;;;18.86;91.65
45345;BME280;31078;48.304;11.896;2022-08-19T04:26:48;95753.88;;;18.87;91.70
45345;BME280;31078;48.304;11.896;2022-08-19T04:29:17;95758.66;;;18.90;91.85
45345;BME280;31078;48.304;11.896;2022-08-19T04:31:46;95754.72;;;18.98;91.59
45345;BME280;31078;48.304;11.896;2022-08-19T04:34:16;95753.16;;;18.97;91.13
45345;BME280;31078;48.304;11.896;2022-08-19T04:36:44;95762.63;;;18.96;90.72
45345;BME280;31078;48.304;11.896;2022-08-19T04:39:12;95772.03;;;18.92;90.94
45345;BME280;31078;48.304;11.896;2022-08-19T04:41:39;95775.97;;;18.94;91.11
45345;BME280;31078;48.304;11.896;2022-08-19T04:44:23;95788.56;;;18.85;91.43
45345;BME280;31078;48.304;11.896;2022-08-19T04:46:50;95788.56;;;18.88;91.63
45345;BME280;31078;48.304;11.896;2022-08-19T04:49:20;95778.38;;;18.96;91.32
45345;BME280;31078;48.304;11.896;2022-08-19T04:51:49;95787.81;;;18.91;91.33
45345;BME280;31078;48.304;11.896;2022-08-19T04:54:17;95787.84;;;18.98;91.46
45345;BME280;31078;48.304;11.896;2022-08-19T04:56:47;95791.03;;;19.08;91.37
45345;BME280;31078;48.304;11.896;2022-08-19T04:59:15;95795.81;;;19.18;90.73
45345;BME280;31078;48.304;11.896;2022-08-19T05:01:44;95793.47;;;19.20;90.10
45345;BME280;31078;48.304;11.896;2022-08-19T05:04:14;95795.81;;;19.18;89.77
45345;BME280;31078;48.304;11.896;2022-08-19T05:06:44;95804.09;;;19.18;89.84
45345;BME280;31078;48.304;11.896;2022-08-19T05:09:10;95803.69;;;19.12;89.69
45345;BME280;31078;48.304;11.896;2022-08-19T05:11:37;95801.72;;;19.13;89.72
45345;BME280;31078;48.304;11.896;2022-08-19T05:14:05;95809.22;;;19.16;90.22
45345;BME280;31078;48.304;11.896;2022-08-19T05:16:32;95822.59;;;19.10;89.51
45345;BME280;31078;48.304;11.896;2022-08-19T05:18:58;95823.78;;;19.06;89.26
45345;BME280;31078;48.304;11.896;2022-08-19T05:21:44;95824.13;;;19.00;90.00
45345;BME280;31078;48.304;11.896;2022-08-19T05:24:29;95824.84;;;18.90;90.83
45345;BME280;31078;48.304;11.896;2022-08-19T05:26:56;95824.84;;;18.90;91.09
45345;BME280;31078;48.304;11.896;2022-08-19T05:29:25;95823.25;;;18.89;91.07
45345;BME280;31078;48.304;11.896;2022-08-19T05:31:53;95823.22;;;18.82;90.82
45345;BME280;31078;48.304;11.896;2022-08-19T05:34:22;95830.97;;;18.66;91.79
45345;BME280;31078;48.304;11.896;2022-08-19T05:36:54;95817.53;;;18.61;92.95
45345;BME280;31078;48.304;11.896;2022-08-19T05:39:21;95814.34;;;18.55;92.80
45345;BME280;31078;48.304;11.896;2022-08-19T05:41:51;95814.38;;;18.59;92.94
45345;BME280;31078;48.304;11.896;2022-08-19T05:44:18;95807.91;;;18.40;93.74
45345;BME280;31078;48.304;11.896;2022-08-19T05:46:46;95805.09;;;18.33;94.78
45345;BME280;31078;48.304;11.896;2022-08-19T05:49:14;95802.34;;;18.33;95.31
45345;BME280;31078;48.304;11.896;2022-08-19T05:51:42;95800.88;;;18.46;94.28
45345;BME280;31078;48.304;11.896;2022-08-19T05:54:09;95800.16;;;18.57;93.72
45345;BME280;31078;48.304;11.896;2022-08-19T05:56:39;95799.44;;;18.67;93.51
45345;BME280;31078;48.304;11.896;2022-08-19T05:59:07;95805.81;;;18.71;93.13
45345;BME280;31078;48.304;11.896;2022-08-19T06:01:35;95805.75;;;18.64;93.01
45345;BME280;31078;48.304;11.896;2022-08-19T06:04:03;95804.97;;;18.67;93.26
45345;BME280;31078;48.304;11.896;2022-08-19T06:06:30;95796.69;;;18.67;94.12
45345;BME280;31078;48.304;11.896;2022-08-19T06:08:56;95794.59;;;18.49;94.85
45345;BME280;31078;48.304;11.896;2022-08-19T06:11:32;95797.69;;;18.41;95.81
45345;BME280;31078;48.304;11.896;2022-08-19T06:14:01;95804.44;;;18.50;96.00
45345;BME280;31078;48.304;11.896;2022-08-19T06:16:28;95801.72;;;18.58;96.39
45345;BME280;31078;48.304;11.896;2022-08-19T06:18:59;95803.81;;;18.68;96.16
45345;BME280;31078;48.304;11.896;2022-08-19T06:21:28;95802.66;;;18.72;95.81
45345;BME280;31078;48.304;11.896;2022-08-19T06:23:55;95800.19;;;18.60;95.69
45345;BME280;31078;48.304;11.896;2022-08-19T06:26:24;95808.03;;;18.55;96.49
45345;BME280;31078;48.304;11.896;2022-08-19T06:28:51;95812.38;;;18.56;96.92
45345;BME280;31078;48.304;11.896;2022-08-19T06:31:21;95811.88;;;18.43;98.33
45345;BME280;31078;48.304;11.896;2022-08-19T06:33:48;95802.09;;;18.49;98.79
45345;BME280;31078;48.304;11.896;2022-08-19T06:36:20;95802.56;;;18.62;98.01
45345;BME280;31078;48.304;11.896;2022-08-19T06:38:47;95799.44;;;18.67;97.88
45345;BME280;31078;48.304;11.896;2022-08-19T06:41:13;95799.13;;;18.72;97.41
45345;BME280;31078;48.304;11.896;2022-08-19T06:43:41;95797.13;;;18.69;97.70
45345;BME280;31078;48.304;11.896;2022-08-19T06:46:11;95808.84;;;18.62;98.05
45345;BME280;31078;48.304;11.896;2022-08-19T06:48:38;95803.47;;;18.76;97.58
45345;BME280;31078;48.304;11.896;2022-08-19T06:51:05;95813.69;;;18.69;97.66
45345;BME280;31078;48.304;11.896;2022-08-19T06:53:32;95813.56;;;18.58;97.77
45345;BME280;31078;48.304;11.896;2022-08-19T06:55:58;95819.19;;;18.69;98.00
45345;BME280;31078;48.304;11.896;2022-08-19T06:58:28;95820.00;;;18.73;97.50
45345;BME280;31078;48.304;11.896;2022-08-19T07:00:59;95824.50;;;18.44;97.84
45345;BME280;31078;48.304;11.896;2022-08-19T07:03:29;95817.41;;;18.46;98.58
45345;BME280;31078;48.304;11.896;2022-08-19T07:05:56;95821.38;;;18.52;98.74
45345;BME280;31078;48.304;11.896;2022-08-19T07:08:24;95826.91;;;18.52;98.95
45345;BME280;31078;48.304;11.896;2022-08-19T07:10:51;95819.81;;;18.51;98.92
45345;BME280;31078;48.304;11.896;2022-08-19T07:13:18;95823.00;;;18.57;98.63
45345;BME280;31078;48.304;11.896;2022-08-19T07:15:46;95813.94;;;18.57;98.54
45345;BME280;31078;48.304;11.896;2022-08-19T07:18:17;95815.88;;;18.49;99.13
45345;BME280;31078;48.304;11.896;2022-08-19T07:20:44;95823.34;;;18.48;99.78
45345;BME280;31078;48.304;11.896;2022-08-19T07:23:10;95819.47;;;18.57;99.95
45345;BME280;31078;48.304;11.896;2022-08-19T07:25:37;95808.81;;;18.55;99.64
45345;BME280;31078;48.304;11.896;2022-08-19T07:28:04;95803.72;;;18.61;99.91
45345;BME280;31078;48.304;11.896;2022-08-19T07:30:32;95797.88;;;18.66;99.57
45345;BME280;31078;48.304;11.896;2022-08-19T07:33:02;95791.22;;;18.74;99.97
45345;BME280;31078;48.304;11.896;2022-08-19T07:35:30;95782.97;;;18.74;100.00
45345;BME280;31078;48.304;11.896;2022-08-19T07:37:57;95774.28;;;18.72;100.00
45345;BME280;31078;48.304;11.896;2022-08-19T07:40:24;95776.66;;;18.70;100.00
45345;BME280;31078;48.304;11.896;2022-08-19T07:42:51;95765.63;;;18.73;100.00
45345;BME280;31078;48.304;11.896;2022-08-19T07:45:17;95766.47;;;18.81;100.00
45345;BME280;31078;48.304;11.896;2022-08-19T07:47:44;95767.28;;;18.89;100.00
45345;BME280;31078;48.304;11.896;2022-08-19T07:50:11;95779.09;;;18.89;100.00
45345;BME280;31078;48.304;11.896;2022-08-19T07:52:39;95770.44;;;18.87;100.00
45345;BME280;31078;48.304;11.896;2022-08-19T07:55:10;95768.00;;;18.75;100.00
45345;BME280;31078;48.304;11.896;2022-08-19T07:57:36;95772.66;;;18.64;100.00
45345;BME280;31078;48.304;11.896;2022-08-19T08:00:05;95780.13;;;18.67;100.00
45345;BME280;31078;48.304;11.896;2022-08-19T08:02:32;95766.34;;;18.67;100.00
45345;BME280;31078;48.304;11.896;2022-08-19T08:04:58;95771.00;;;18.56;100.00
45345;BME280;31078;48.304;11.896;2022-08-19T08:07:44;95774.97;;;18.62;100.00
45345;BME280;31078;48.304;11.896;2022-08-19T08:10:28;95768.00;;;18.75;100.00
45345;BME280;31078;48.304;11.896;2022-08-19T08:12:54;95752.31;;;18.86;100.00
45345;BME280;31078;48.304;11.896;2022-08-19T08:15:21;95753.13;;;18.94;100.00
45345;BME280;31078;48.304;11.896;2022-08-19T08:17:47;95743.31;;;18.96;100.00
45345;BME280;31078;48.304;11.896;2022-08-19T08:20:14;95739.00;;;19.06;100.00
45345;BME280;31078;48.304;11.896;2022-08-19T08:22:44;95744.53;;;19.10;100.00
45345;BME280;31078;48.304;11.896;2022-08-19T08:25:28;95754.00;;;19.09;100.00
45345;BME280;31078;48.304;11.896;2022-08-19T08:27:56;95763.47;;;19.15;100.00
45345;BME280;31078;48.304;11.896;2022-08-19T08:30:26;95768.25;;;19.25;100.00
45345;BME280;31078;48.304;11.896;2022-08-19T08:32:53;95788.75;;;19.24;100.00
45345;BME280;31078;48.304;11.896;2022-08-19T08:35:22;95782.41;;;19.20;98.92
45345;BME280;31078;48.304;11.896;2022-08-19T08:37:52;95798.16;;;19.16;98.07
45345;BME280;31078;48.304;11.896;2022-08-19T08:40:23;95807.63;;;19.11;98.52
45345;BME280;31078;48.304;11.896;2022-08-19T08:42:57;95804.03;;;19.03;98.63
45345;BME280;31078;48.304;11.896;2022-08-19T08:45:28;95810.72;;;19.02;98.75
45345;BME280;31078;48.304;11.896;2022-08-19T08:47:57;95810.19;;;18.75;100.00
45345;BME280;31078;48.304;11.896;2022-08-19T08:50:32;95816.94;;;18.85;100.00
45345;BME280;31078;48.304;11.896;2022-08-19T08:53:03;95825.56;;;18.80;100.00
45345;BME280;31078;48.304;11.896;2022-08-19T08:55:31;95821.28;;;18.86;100.00
45345;BME280;31078;48.304;11.896;2022-08-19T08:58:01;95820.50;;;18.89;100.00
45345;BME280;31078;48.304;11.896;2022-08-19T09:00:31;95816.50;;;18.83;100.00
45345;BME280;31078;48.304;11.896;2022-08-19T09:02:58;95822.53;;;18.96;100.00
45345;BME280;31078;48.304;11.896;2022-08-19T09:05:33;95819.75;;;18.99;100.00
45345;BME280;31078;48.304;11.896;2022-08-19T09:08:06;95822.59;;;19.07;100.00
45345;BME280;31078;48.304;11.896;2022-08-19T09:10:37;95824.91;;;19.04;100.00
45345;BME280;31078;48.304;11.896;2022-08-19T09:13:13;95828.91;;;19.07;100.00
45345;BME280;31078;48.304;11.896;2022-08-19T09:15:45;95830.91;;;19.14;100.00
45345;BME280;31078;48.304;11.896;2022-08-19T09:18:14;95830.06;;;19.10;100.00
45345;BME280;31078;48.304;11.896;2022-08-19T09:20:41;95838.22;;;18.88;100.00
45345;BME280;31078;48.304;11.896;2022-08-19T09:23:09;95835.47;;;18.88;100.00
45345;BME280;31078;48.304;11.896;2022-08-19T09:25:36;95834.25;;;18.82;100.00
45345;BME280;31078;48.304;11.896;2022-08-19T09:28:05;95830.28;;;18.76;100.00
45345;BME280;31078;48.304;11.896;2022-08-19T09:30:36;95836.94;;;18.71;100.00
45345;BME280;31078;48.304;11.896;2022-08-19T09:33:04;95832.53;;;18.67;100.00
45345;BME280;31078;48.304;11.896;2022-08-19T09:35:31;95836.47;;;18.66;100.00
45345;BME280;31078;48.304;11.896;2022-08-19T09:37:59;95837.31;;;18.70;100.00
45345;BME280;31078;48.304;11.896;2022-08-19T09:40:27;95826.63;;;18.65;100.00
45345;BME280;31078;48.304;11.896;2022-08-19T09:42:54;95837.66;;;18.65;100.00
45345;BME280;31078;48.304;11.896;2022-08-19T09:45:22;95837.19;;;18.56;100.00
45345;BME280;31078;48.304;11.896;2022-08-19T09:47:49;95831.72;;;18.63;100.00
45345;BME280;31078;48.304;11.896;2022-08-19T09:50:16;95831.81;;;18.70;100.00
45345;BME280;31078;48.304;11.896;2022-08-19T09:52:43;95830.28;;;18.76;100.00
45345;BME280;31078;48.304;11.896;2022-08-19T09:55:10;95824.75;;;18.76;100.00
45345;BME280;31078;48.304;11.896;2022-08-19T09:57:39;95823.22;;;18.82;100.00
45345;BME280;31078;48.304;11.896;2022-08-19T10:00:08;95822.50;;;18.92;100.00
45345;BME280;31078;48.304;11.896;2022-08-19T10:02:35;95822.50;;;18.92;100.00
45345;BME280;31078;48.304;11.896;2022-08-19T10:05:02;95820.16;;;18.98;100.00
45345;BME280;31078;48.304;11.896;2022-08-19T10:07:46;95829.66;;;19.00;100.00
45345;BME280;31078;48.304;11.896;2022-08-19T10:10:13;95826.50;;;19.02;100.00
45345;BME280;31078;48.304;11.896;2022-08-19T10:12:41;95835.94;;;18.97;100.00
45345;BME280;31078;48.304;11.896;2022-08-19T10:15:13;95836.78;;;19.09;100.00
45345;BME280;31078;48.304;11.896;2022-08-19T10:17:39;95830.50;;;19.12;100.00
45345;BME280;31078;48.304;11.896;2022-08-19T10:20:07;95833.66;;;19.14;100.00
45345;BME280;31078;48.304;11.896;2022-08-19T10:22:33;95845.53;;;19.25;100.00
45345;BME280;31078;48.304;11.896;2022-08-19T10:25:04;95838.44;;;19.24;100.00
45345;BME280;31078;48.304;11.896;2022-08-19T10:27:30;95849.47;;;19.24;100.00
45345;BME280;31078;48.304;11.896;2022-08-19T10:29:58;95844.34;;;19.26;100.00
45345;BME280;31078;48.304;11.896;2022-08-19T10:32:25;95843.97;;;19.24;100.00
45345;BME280;31078;48.304;11.896;2022-08-19T10:34:51;95833.75;;;19.32;100.00
45345;BME280;31078;48.304;11.896;2022-08-19T10:37:18;95834.56;;;19.39;100.00
45345;BME280;31078;48.304;11.896;2022-08-19T10:39:46;95827.09;;;19.43;100.00
45345;BME280;31078;48.304;11.896;2022-08-19T10:42:13;95818.78;;;19.36;100.00
45345;BME280;31078;48.304;11.896;2022-08-19T10:44:41;95819.16;;;19.35;100.00
45345;BME280;31078;48.304;11.896;2022-08-19T10:47:10;95824.72;;;19.38;100.00
45345;BME280;31078;48.304;11.896;2022-08-19T10:49:37;95831.06;;;19.49;100.00
45345;BME280;31078;48.304;11.896;2022-08-19T10:52:23;95816.13;;;19.61;100.00
45345;BME280;31078;48.304;11.896;2022-08-19T10:54:58;95822.88;;;19.67;100.00
45345;BME280;31078;48.304;11.896;2022-08-19T10:57:43;95820.44;;;19.55;100.00
45345;BME280;31078;48.304;11.896;2022-08-19T11:00:10;95814.91;;;19.55;98.72
45345;BME280;31078;48.304;11.896;2022-08-19T11:02:40;95814.97;;;19.66;96.71
45345;BME280;31078;48.304;11.896;2022-08-19T11:05:08;95801.94;;;19.63;98.10
45345;BME280;31078;48.304;11.896;2022-08-19T11:07:36;95810.22;;;19.63;98.68
45345;BME280;31078;48.304;11.896;2022-08-19T11:10:03;95799.97;;;19.67;97.90
45345;BME280;31078;48.304;11.896;2022-08-19T11:12:30;95796.44;;;19.77;96.31
45345;BME280;31078;48.304;11.896;2022-08-19T11:14:58;95802.41;;;19.93;96.81
45345;BME280;31078;48.304;11.896;2022-08-19T11:17:24;95803.22;;;19.90;95.93
45345;BME280;31078;48.304;11.896;2022-08-19T11:19:52;95801.66;;;20.00;97.48
45345;BME280;31078;48.304;11.896;2022-08-19T11:22:18;95803.22;;;19.97;94.31
45345;BME280;31078;48.304;11.896;2022-08-19T11:24:45;95804.44;;;20.11;95.06
45345;BME280;31078;48.304;11.896;2022-08-19T11:27:12;95805.63;;;20.17;94.71
45345;BME280;31078;48.304;11.896;2022-08-19T11:29:39;95804.84;;;20.27;95.10
45345;BME280;31078;48.304;11.896;2022-08-19T11:32:09;95801.28;;;20.26;93.83
45345;BME280;31078;48.304;11.896;2022-08-19T11:34:36;95796.94;;;20.22;92.48
45345;BME280;31078;48.304;11.896;2022-08-19T11:37:05;95789.81;;;20.21;93.05
45345;BME280;31078;48.304;11.896;2022-08-19T11:39:35;95784.69;;;20.37;93.93
45345;BME280;31078;48.304;11.896;2022-08-19T11:42:03;95783.53;;;20.52;93.60
45345;BME280;31078;48.304;11.896;2022-08-19T11:44:50;95800.53;;;20.58;89.14
45345;BME280;31078;48.304;11.896;2022-08-19T11:47:17;95798.53;;;20.62;89.28
45345;BME280;31078;48.304;11.896;2022-08-19T11:49:43;95791.41;;;20.79;89.24
45345;BME280;31078;48.304;11.896;2022-08-19T11:52:11;95787.78;;;21.10;88.22
45345;BME280;31078;48.304;11.896;2022-08-19T11:54:37;95792.09;;;21.19;86.15
45345;BME280;31078;48.304;11.896;2022-08-19T11:57:04;95799.59;;;21.22;83.57
45345;BME280;31078;48.304;11.896;2022-08-19T11:59:31;95797.97;;;21.42;84.32
45345;BME280;31078;48.304;11.896;2022-08-19T12:01:57;95784.13;;;21.42;81.99
45345;BME280;31078;48.304;11.896;2022-08-19T12:04:24;95789.66;;;21.46;82.24
45345;BME280;31078;48.304;11.896;2022-08-19T12:06:51;95791.19;;;21.50;84.40
45345;BME280;31078;48.304;11.896;2022-08-19T12:09:19;95782.88;;;21.50;82.76
45345;BME280;31078;48.304;11.896;2022-08-19T12:11:47;95788.00;;;21.59;81.36
45345;BME280;31078;48.304;11.896;2022-08-19T12:14:13;95788.06;;;21.48;83.56
45345;BME280;31078;48.304;11.896;2022-08-19T12:16:40;95782.94;;;21.29;84.41
45345;BME280;31078;48.304;11.896;2022-08-19T12:19:07;95782.94;;;21.43;84.12
45345;BME280;31078;48.304;11.896;2022-08-19T12:21:35;95778.53;;;21.53;82.40
45345;BME280;31078;48.304;11.896;2022-08-19T12:24:03;95790.78;;;21.55;81.52
45345;BME280;31078;48.304;11.896;2022-08-19T12:26:32;95796.06;;;21.10;79.73
45345;BME280;31078;48.304;11.896;2022-08-19T12:28:59;95798.41;;;21.23;82.27
45345;BME280;31078;48.304;11.896;2022-08-19T12:31:26;95798.81;;;21.21;83.51
45345;BME280;31078;48.304;11.896;2022-08-19T12:33:53;95793.63;;;21.34;82.58
45345;BME280;31078;48.304;11.896;2022-08-19T12:36:19;95787.31;;;21.23;79.85
45345;BME280;31078;48.304;11.896;2022-08-19T12:38:47;95792.91;;;21.08;81.24
45345;BME280;31078;48.304;11.896;2022-08-19T12:41:16;95796.06;;;21.03;79.65
45345;BME280;31078;48.304;11.896;2022-08-19T12:43:45;95797.72;;;20.94;78.20
45345;BME280;31078;48.304;11.896;2022-08-19T12:46:15;95806.41;;;20.99;81.34
45345;BME280;31078;48.304;11.896;2022-08-19T12:48:41;95797.69;;;21.04;80.77
45345;BME280;31078;48.304;11.896;2022-08-19T12:51:12;95800.81;;;21.06;80.98
45345;BME280;31078;48.304;11.896;2022-08-19T12:53:40;95802.44;;;21.00;80.04